Time;durP1;ratioP1;P1;durP2;ratioP2;P2;SDS_P1;SDS_P2;PMS_P1;PMS_P2;Temp;Humidity;BMP_temperature;BMP_pressure;BME280_temperature;BME280_humidity;BME280_pressure;Samples;Min_cycle;Max_cycle;Signal;HPM_P1;HPM_P2
2021/07/23 00:02:52;;;;;;;13.40;10.80;;;;;;;21.35;52.27;98107.28;8351049;28;20253;-64
2021/07/23 00:06:54;;;;;;;12.47;10.63;;;;;;;21.34;52.18;98110.03;8349816;28;20229;-64
2021/07/23 00:10:59;;;;;;;13.57;11.70;;;;;;;21.30;51.89;98112.09;8350706;28;20229;-64
2021/07/23 00:15:02;;;;;;;12.03;10.77;;;;;;;21.27;52.20;98104.50;8351048;28;20211;-64
2021/07/23 00:19:05;;;;;;;13.37;11.37;;;;;;;21.19;52.46;98099.03;8350666;28;20538;-65
2021/07/23 00:23:07;;;;;;;13.40;10.40;;;;;;;21.11;52.70;98101.50;8350464;28;20231;-65
2021/07/23 00:27:12;;;;;;;14.80;11.70;;;;;;;21.07;52.85;98095.66;8350429;28;20200;-65
2021/07/23 00:31:15;;;;;;;19.30;11.57;;;;;;;21.09;52.69;98091.09;8350323;28;20484;-65
2021/07/23 00:35:18;;;;;;;14.77;11.23;;;;;;;21.01;52.92;98086.47;8350323;28;20384;-65
2021/07/23 00:39:20;;;;;;;12.97;10.97;;;;;;;20.93;53.16;98098.66;8350010;28;20200;-64
2021/07/23 00:43:24;;;;;;;13.17;11.50;;;;;;;20.98;52.74;98089.38;8350028;28;20535;-65
2021/07/23 00:47:27;;;;;;;15.00;11.20;;;;;;;20.96;52.87;98096.59;8349991;28;20215;-64
2021/07/23 00:51:30;;;;;;;13.20;11.40;;;;;;;20.94;52.75;98092.41;8349947;28;20201;-64
2021/07/23 00:55:33;;;;;;;16.13;11.47;;;;;;;20.86;53.08;98095.69;8349812;28;20200;-64
2021/07/23 00:59:38;;;;;;;13.57;11.30;;;;;;;20.84;52.94;98087.91;8349742;28;20279;-65
2021/07/23 01:03:41;;;;;;;12.87;11.13;;;;;;;20.80;53.11;98089.13;8349804;28;20224;-65
2021/07/23 01:07:44;;;;;;;16.13;11.63;;;;;;;20.64;53.56;98081.72;8349083;28;20240;-64
2021/07/23 01:11:47;;;;;;;14.23;11.17;;;;;;;20.67;53.45;98086.69;8349428;28;20239;-64
2021/07/23 01:15:51;;;;;;;14.97;11.13;;;;;;;20.66;53.46;98082.41;8349511;28;20219;-64
2021/07/23 01:20:00;;;;;;;13.40;11.70;;;;;;;20.60;53.32;98080.31;8356002;28;20271;-64
2021/07/23 01:24:05;;;;;;;14.13;12.17;;;;;;;20.46;53.80;98077.94;8356059;28;20231;-65
2021/07/23 01:28:08;;;;;;;14.33;11.87;;;;;;;20.44;53.82;98085.94;8330479;28;20399;-65
2021/07/23 01:32:10;;;;;;;15.23;11.40;;;;;;;20.51;53.91;98076.59;8323034;28;20472;-65
2021/07/23 01:36:13;;;;;;;14.80;11.03;;;;;;;20.43;54.04;98080.84;8322813;28;20213;-65
2021/07/23 01:40:17;;;;;;;15.30;12.20;;;;;;;20.42;54.01;98069.47;8322792;28;20391;-65
2021/07/23 01:44:21;;;;;;;15.87;12.37;;;;;;;20.37;54.07;98074.28;8322744;28;20229;-65
2021/07/23 01:48:24;;;;;;;16.33;11.60;;;;;;;20.30;54.43;98065.25;8322395;28;20201;-65
2021/07/23 01:52:26;;;;;;;15.13;11.70;;;;;;;20.35;54.01;98067.47;8322615;28;20474;-65
2021/07/23 01:56:30;;;;;;;14.83;12.07;;;;;;;20.28;54.32;98068.00;8322199;28;20208;-65
2021/07/23 02:00:34;;;;;;;17.37;12.50;;;;;;;20.26;54.23;98061.19;8322150;28;20208;-64
2021/07/23 02:04:37;;;;;;;15.43;12.60;;;;;;;20.15;55.01;98069.97;8321846;28;20236;-65
2021/07/23 02:08:40;;;;;;;17.30;12.60;;;;;;;20.03;54.85;98063.91;8321971;28;20248;-65
2021/07/23 02:12:44;;;;;;;14.07;11.73;;;;;;;20.00;54.75;98072.03;8321926;28;20209;-65
2021/07/23 02:16:47;;;;;;;13.27;11.43;;;;;;;19.87;54.86;98059.06;8321518;28;20208;-65
2021/07/23 02:20:50;;;;;;;14.00;11.40;;;;;;;19.85;55.26;98063.59;8321414;28;20201;-64
2021/07/23 02:24:52;;;;;;;13.30;11.70;;;;;;;19.99;54.53;98066.91;8321311;28;20229;-64
2021/07/23 02:28:57;;;;;;;15.67;11.73;;;;;;;19.95;54.88;98060.22;8320160;28;20200;-65
2021/07/23 02:33:00;;;;;;;13.63;12.23;;;;;;;19.90;54.87;98061.44;8320995;28;20212;-65
2021/07/23 02:37:03;;;;;;;12.40;11.10;;;;;;;19.79;54.91;98060.66;8321055;28;20383;-65
2021/07/23 02:41:06;;;;;;;15.00;11.33;;;;;;;19.64;54.97;98057.44;8320920;28;20224;-65
2021/07/23 02:45:11;;;;;;;12.30;11.10;;;;;;;19.72;54.82;98062.91;8320605;28;20229;-64
2021/07/23 02:49:13;;;;;;;13.60;11.07;;;;;;;19.73;55.09;98060.19;8320839;28;20208;-65
2021/07/23 02:53:17;;;;;;;12.77;10.87;;;;;;;19.66;54.46;98056.34;8320671;28;20390;-65
2021/07/23 02:57:20;;;;;;;13.00;10.80;;;;;;;19.64;55.00;98060.06;8320339;28;20200;-65
2021/07/23 03:01:24;;;;;;;14.20;11.87;;;;;;;19.57;55.13;98057.06;8320137;28;20216;-65
2021/07/23 03:05:27;;;;;;;15.40;12.03;;;;;;;19.61;55.04;98044.53;8319937;28;20255;-65
2021/07/23 03:09:30;;;;;;;18.73;12.03;;;;;;;19.51;55.13;98044.44;8319837;28;20241;-65
2021/07/23 03:13:33;;;;;;;13.30;11.90;;;;;;;19.44;55.11;98041.47;8319782;28;20212;-65
2021/07/23 03:17:37;;;;;;;14.43;12.80;;;;;;;19.36;55.60;98035.16;8319739;28;20207;-65
2021/07/23 03:21:40;;;;;;;14.53;11.50;;;;;;;19.51;55.17;98031.28;8319639;28;20209;-64
2021/07/23 03:25:43;;;;;;;12.90;11.50;;;;;;;19.50;55.11;98035.72;8319564;28;20418;-64
2021/07/23 03:29:45;;;;;;;15.10;13.47;;;;;;;19.29;55.36;98029.56;8319329;28;20208;-64
2021/07/23 03:33:51;;;;;;;20.67;12.50;;;;;;;19.41;55.23;98036.44;8319411;28;20212;-65
2021/07/23 03:37:53;;;;;;;16.37;13.50;;;;;;;19.20;56.14;98033.72;8319117;28;20208;-64
2021/07/23 03:41:56;;;;;;;14.37;12.87;;;;;;;19.30;55.17;98024.16;8318860;28;20201;-64
2021/07/23 03:46:00;;;;;;;14.73;13.13;;;;;;;19.26;55.68;98025.38;8318917;28;20248;-65
2021/07/23 03:50:05;;;;;;;14.77;13.23;;;;;;;19.23;56.08;98022.16;8318759;28;20224;-64
2021/07/23 03:54:07;;;;;;;14.30;12.93;;;;;;;19.24;55.90;98031.72;8318657;28;20227;-64
2021/07/23 03:58:11;;;;;;;16.67;13.03;;;;;;;19.19;56.08;98026.84;8318607;28;20486;-65
2021/07/23 04:02:14;;;;;;;17.60;12.87;;;;;;;19.17;55.37;98023.47;8318364;28;20201;-64
2021/07/23 04:06:18;;;;;;;15.23;13.53;;;;;;;19.03;55.85;98021.94;8318195;28;20255;-64
2021/07/23 04:10:21;;;;;;;18.23;13.87;;;;;;;19.19;55.56;98028.59;8317848;28;20381;-64
2021/07/23 04:14:24;;;;;;;15.10;13.50;;;;;;;19.20;55.91;98022.41;8318181;28;20209;-64
2021/07/23 04:18:27;;;;;;;16.40;12.97;;;;;;;19.31;55.23;98025.03;8318117;28;20553;-64
2021/07/23 04:22:33;;;;;;;16.33;13.40;;;;;;;19.28;55.56;98030.50;8317848;28;20201;-64
2021/07/23 04:26:36;;;;;;;16.30;13.47;;;;;;;19.24;55.74;98032.53;8317830;28;20258;-64
2021/07/23 04:30:39;;;;;;;16.53;13.20;;;;;;;19.20;56.06;98038.97;8317771;28;20205;-64
2021/07/23 04:34:42;;;;;;;17.23;14.23;;;;;;;19.21;55.67;98038.03;8317517;28;20205;-64
2021/07/23 04:38:46;;;;;;;17.63;13.13;;;;;;;19.21;55.65;98042.44;8317456;28;20201;-64
2021/07/23 04:42:49;;;;;;;15.97;13.63;;;;;;;19.28;55.88;98046.25;8327216;28;20395;-64
2021/07/23 04:46:51;;;;;;;17.47;13.23;;;;;;;19.34;55.58;98048.38;8354647;28;20227;-64
2021/07/23 04:50:54;;;;;;;18.30;14.47;;;;;;;19.33;55.72;98052.81;8352722;28;20384;-64
2021/07/23 04:55:07;;;;;;;20.23;15.60;;;;;;;19.48;56.39;98057.81;8349639;28;20204;-70
2021/07/23 04:59:09;;;;;;;16.97;14.93;;;;;;;19.66;55.69;98058.13;8349733;28;20213;-64
2021/07/23 05:03:12;;;;;;;16.50;14.80;;;;;;;19.88;55.46;98054.66;8349123;28;20405;-65
2021/07/23 05:07:15;;;;;;;16.77;14.60;;;;;;;20.03;56.00;98058.66;8374057;28;20269;-65
2021/07/23 05:11:21;;;;;;;17.70;14.30;;;;;;;20.12;55.69;98062.31;8381845;28;20223;-65
2021/07/23 05:15:24;;;;;;;15.87;13.23;;;;;;;20.30;56.08;98047.66;8381658;28;20211;-65
2021/07/23 05:19:27;;;;;;;18.00;13.40;;;;;;;20.45;55.88;98052.63;8381639;28;20200;-65
2021/07/23 05:23:30;;;;;;;20.03;13.87;;;;;;;20.43;55.80;98044.03;8381898;28;20195;-65
2021/07/23 05:27:35;;;;;;;20.17;15.37;;;;;;;20.59;55.70;98049.66;8381421;28;20195;-65
2021/07/23 05:31:39;;;;;;;21.13;15.83;;;;;;;20.61;55.49;98044.28;8382162;28;20276;-65
2021/07/23 05:35:42;;;;;;;18.37;16.37;;;;;;;20.54;55.69;98046.56;8382254;28;20207;-65
2021/07/23 05:39:45;;;;;;;21.63;16.10;;;;;;;20.74;55.88;98044.94;8382122;28;20200;-65
2021/07/23 05:43:49;;;;;;;26.03;15.90;;;;;;;20.72;55.94;98041.59;8381916;28;20231;-65
2021/07/23 05:47:52;;;;;;;19.27;15.37;;;;;;;20.82;55.51;98042.47;8362491;28;20207;-67
2021/07/23 05:51:55;;;;;;;19.97;16.00;;;;;;;21.02;55.67;98045.22;8348889;28;20204;-66
2021/07/23 05:55:58;;;;;;;20.80;15.47;;;;;;;21.13;55.67;98041.63;8348696;28;20211;-66
2021/07/23 06:00:02;;;;;;;16.70;14.80;;;;;;;21.21;55.50;98047.91;8348846;28;20513;-66
2021/07/23 06:04:05;;;;;;;19.70;16.00;;;;;;;21.24;55.10;98050.25;8351613;28;20237;-66
2021/07/23 06:08:08;;;;;;;18.63;15.80;;;;;;;21.27;55.04;98049.19;8354549;28;20249;-65
2021/07/23 06:12:11;;;;;;;18.83;16.50;;;;;;;21.47;54.17;98050.09;8354766;28;20231;-65
2021/07/23 06:16:15;;;;;;;18.73;16.67;;;;;;;21.50;55.00;98041.09;8354384;28;20335;-65
2021/07/23 06:20:18;;;;;;;17.87;15.53;;;;;;;21.81;53.56;98047.09;8354228;28;20236;-65
2021/07/23 06:24:21;;;;;;;19.77;16.27;;;;;;;21.81;53.81;98041.84;8354381;28;20553;-65
2021/07/23 06:28:23;;;;;;;19.93;15.60;;;;;;;21.94;53.55;98037.13;8354030;28;20214;-66
2021/07/23 06:32:28;;;;;;;16.83;14.90;;;;;;;21.99;53.44;98034.94;8353981;28;20215;-66
2021/07/23 06:36:32;;;;;;;18.33;14.90;;;;;;;22.09;52.91;98042.84;8353008;28;20198;-65
2021/07/23 06:40:35;;;;;;;15.30;13.70;;;;;;;22.30;52.15;98032.16;8352877;28;20200;-67
2021/07/23 06:44:37;;;;;;;15.83;14.10;;;;;;;22.66;51.07;98029.75;8353602;28;20533;-67
2021/07/23 06:48:41;;;;;;;15.40;13.67;;;;;;;22.86;50.16;98038.41;8352783;28;20207;-67
2021/07/23 06:52:44;;;;;;;19.93;14.53;;;;;;;22.81;50.22;98038.88;8352853;28;20197;-67
2021/07/23 06:56:49;;;;;;;16.00;14.20;;;;;;;22.82;50.29;98040.50;8353420;28;20525;-67
2021/07/23 07:00:52;;;;;;;15.57;13.83;;;;;;;22.96;49.92;98033.09;8353338;28;20271;-68
2021/07/23 07:04:58;;;;;;;15.40;13.73;;;;;;;23.16;49.44;98044.47;8352775;28;20226;-67
2021/07/23 07:09:00;;;;;;;21.70;14.40;;;;;;;23.27;49.45;98038.16;8352815;28;20405;-67
2021/07/23 07:13:04;;;;;;;15.80;14.10;;;;;;;23.31;49.09;98042.19;8352995;28;20204;-67
2021/07/23 07:17:06;;;;;;;18.07;14.77;;;;;;;23.26;48.48;98037.31;8352319;28;20205;-67
2021/07/23 07:21:12;;;;;;;19.10;15.20;;;;;;;23.28;48.54;98040.63;8352623;28;20202;-67
2021/07/23 07:25:15;;;;;;;21.17;13.40;;;;;;;23.81;47.99;98047.88;8352270;28;20278;-67
2021/07/23 07:29:18;;;;;;;16.67;13.17;;;;;;;24.23;47.29;98046.44;8352225;28;20212;-67
2021/07/23 07:33:21;;;;;;;16.33;13.40;;;;;;;24.36;46.58;98044.22;8351798;28;20409;-67
2021/07/23 07:37:25;;;;;;;15.33;13.47;;;;;;;24.55;46.44;98037.94;8351977;28;20398;-67
2021/07/23 07:41:28;;;;;;;16.47;13.33;;;;;;;24.77;45.04;98036.63;8351489;28;20243;-67
2021/07/23 07:45:32;;;;;;;15.87;13.70;;;;;;;25.06;45.09;98042.56;8350733;28;20246;-67
2021/07/23 07:49:34;;;;;;;16.20;13.23;;;;;;;25.31;44.49;98040.88;8350888;28;20208;-67
2021/07/23 07:53:38;;;;;;;13.40;12.00;;;;;;;25.67;43.74;98038.00;8350678;28;20517;-67
2021/07/23 07:57:42;;;;;;;16.73;13.73;;;;;;;25.78;43.70;98028.91;8351349;28;20500;-67
2021/07/23 08:01:45;;;;;;;14.57;12.20;;;;;;;26.08;43.05;98035.44;8377058;28;20393;-67
2021/07/23 08:05:47;;;;;;;17.13;13.53;;;;;;;26.10;42.33;98036.94;8384069;28;20231;-67
2021/07/23 08:09:53;;;;;;;14.70;12.63;;;;;;;26.33;42.22;98030.94;8383985;28;20220;-68
2021/07/23 08:13:59;;;;;;;16.23;14.50;;;;;;;25.90;41.70;98033.72;8376473;28;20193;-68
2021/07/23 08:18:02;;;;;;;22.07;13.30;;;;;;;25.58;41.85;98031.84;8347255;28;20201;-67
2021/07/23 08:22:06;;;;;;;17.33;12.30;;;;;;;26.18;41.36;98040.59;8349305;28;20201;-68
2021/07/23 08:26:10;;;;;;;13.90;12.13;;;;;;;26.69;40.54;98031.47;8349584;28;20239;-68
2021/07/23 08:30:13;;;;;;;16.70;11.97;;;;;;;27.03;40.37;98025.03;8349428;28;20193;-68
2021/07/23 08:34:16;;;;;;;16.90;13.40;;;;;;;27.11;40.75;98024.19;8349791;28;20511;-68
2021/07/23 08:38:19;;;;;;;16.20;13.97;;;;;;;27.23;40.54;98017.50;8348900;28;20209;-67
2021/07/23 08:42:28;;;;;;;17.57;13.50;;;;;;;27.07;39.95;98018.41;8349272;28;20200;-67
2021/07/23 08:46:31;;;;;;;16.07;12.37;;;;;;;27.42;39.45;98026.94;8348296;28;20234;-67
2021/07/23 08:50:35;;;;;;;19.13;14.47;;;;;;;27.63;38.74;98021.00;8349940;28;20211;-67
2021/07/23 08:54:38;;;;;;;14.70;13.10;;;;;;;27.88;38.22;98031.47;8349185;28;20207;-69
2021/07/23 08:58:42;;;;;;;15.07;12.90;;;;;;;28.18;38.94;98029.78;8349368;28;20197;-66
2021/07/23 09:03:03;;;;;;;15.80;12.30;;;;;;;28.31;37.34;98026.53;8349665;28;20204;-66
2021/07/23 09:07:30;;;;;;;14.30;12.13;;;;;;;28.61;36.85;98015.94;8349318;28;20351;-66
2021/07/23 09:11:33;;;;;;;15.07;12.47;;;;;;;28.84;35.97;98022.06;8344647;28;20205;-66
2021/07/23 09:15:39;;;;;;;16.17;12.00;;;;;;;28.76;35.82;98015.97;8349519;28;20206;-66
2021/07/23 09:19:42;;;;;;;15.47;12.03;;;;;;;28.83;35.24;98008.91;8349699;28;20208;-66
2021/07/23 09:23:44;;;;;;;17.37;12.90;;;;;;;28.91;36.05;98003.47;8349466;28;20201;-66
2021/07/23 09:27:47;;;;;;;16.87;12.23;;;;;;;29.11;35.72;98005.56;8349311;28;20237;-66
2021/07/23 09:36:29;;;;;;;13.07;10.90;;;;;;;29.62;34.25;98002.91;8445619;28;20555;-65
2021/07/23 09:40:45;;;;;;;15.23;12.23;;;;;;;29.38;33.90;97998.78;8445084;28;20266;-66
2021/07/23 09:44:48;;;;;;;14.30;11.43;;;;;;;29.00;33.84;97990.88;8445176;28;20204;-65
2021/07/23 09:48:55;;;;;;;15.00;11.53;;;;;;;29.53;33.51;97986.22;8445157;28;20200;-65
2021/07/23 09:52:59;;;;;;;16.90;12.17;;;;;;;29.08;33.48;97982.78;8444730;28;20231;-65
2021/07/23 09:57:03;;;;;;;14.97;12.07;;;;;;;28.99;32.91;97982.03;8444367;28;20200;-66
2021/07/23 10:01:09;;;;;;;15.47;11.40;;;;;;;29.71;32.40;97987.63;8443595;28;20192;-65
2021/07/23 10:05:14;;;;;;;14.40;11.30;;;;;;;29.85;30.96;97973.41;8443395;28;20201;-64
2021/07/23 10:09:23;;;;;;;13.07;10.53;;;;;;;29.52;31.08;97981.06;8421499;28;20231;-65
2021/07/23 10:13:27;;;;;;;11.63;10.33;;;;;;;29.60;30.53;97973.75;8393088;28;20223;-65
2021/07/23 10:17:31;;;;;;;12.87;11.07;;;;;;;30.06;31.12;97971.75;8409472;28;20205;-65
2021/07/23 10:21:36;;;;;;;13.47;10.20;;;;;;;30.25;30.44;97964.91;8407063;28;20573;-65
2021/07/23 10:25:40;;;;;;;12.20;10.70;;;;;;;30.55;31.55;97966.41;8392754;28;20207;-65
2021/07/23 10:29:47;;;;;;;12.47;10.57;;;;;;;29.98;32.31;97956.69;8409747;28;20198;-64
2021/07/23 10:33:50;;;;;;;11.27;10.17;;;;;;;30.66;31.32;97949.00;8409701;28;20238;-64
2021/07/23 10:37:54;;;;;;;13.93;10.90;;;;;;;30.99;30.86;97941.16;8409618;28;20203;-64
2021/07/23 10:42:34;;;;;;;11.60;10.50;;;;;;;31.17;29.66;97945.97;8409597;28;20272;-64
2021/07/23 10:46:56;;;;;;;11.30;10.20;;;;;;;31.38;28.66;97945.00;8392433;28;20282;-66
2021/07/23 10:50:59;;;;;;;15.47;10.67;;;;;;;31.24;28.82;97940.63;8377005;28;20217;-65
2021/07/23 10:55:13;;;;;;;11.30;10.20;;;;;;;31.29;30.26;97938.19;8386067;28;20220;-66
2021/07/23 10:59:53;;;;;;;11.50;10.30;;;;;;;31.12;29.56;97932.38;8381094;28;20192;-65
2021/07/23 11:04:01;;;;;;;11.77;10.57;;;;;;;31.12;29.41;97926.22;8386129;28;20220;-64
2021/07/23 11:08:04;;;;;;;12.37;11.03;;;;;;;30.76;28.98;97919.25;8384045;28;20219;-65
2021/07/23 11:12:15;;;;;;;12.73;10.20;;;;;;;31.42;30.99;97917.88;8385035;28;20209;-65
2021/07/23 11:16:22;;;;;;;10.97;9.90;;;;;;;31.80;29.52;97920.81;8385379;28;20323;-69
2021/07/23 11:20:27;;;;;;;13.13;9.70;;;;;;;32.25;29.61;97914.84;8383619;28;20274;-67
2021/07/23 11:24:34;;;;;;;12.00;10.10;;;;;;;32.14;28.44;97909.09;8374189;28;20209;-70
2021/07/23 11:28:47;;;;;;;13.03;9.73;;;;;;;30.77;30.25;97904.88;8353304;28;20202;-69
2021/07/23 11:32:54;;;;;;;11.30;10.20;;;;;;;30.05;31.53;97898.84;8352538;28;20525;-69
2021/07/23 11:36:57;;;;;;;11.97;10.30;;;;;;;30.82;29.82;97894.38;8353050;28;20383;-68
2021/07/23 11:41:06;;;;;;;12.90;10.60;;;;;;;30.90;30.32;97894.25;8352937;28;20496;-69
2021/07/23 11:45:10;;;;;;;11.23;10.03;;;;;;;29.96;31.25;97892.00;8352928;28;20215;-69
2021/07/23 11:49:14;;;;;;;11.23;9.93;;;;;;;29.82;32.86;97889.22;8352582;28;20204;-69
2021/07/23 11:53:17;;;;;;;11.03;9.20;;;;;;;30.03;32.64;97884.88;8352184;28;20204;-69
2021/07/23 11:57:20;;;;;;;13.57;10.07;;;;;;;29.84;32.19;97872.22;8351188;28;20201;-69
2021/07/23 12:01:26;;;;;;;12.43;9.77;;;;;;;29.66;33.78;97865.44;8352252;28;20210;-69
2021/07/23 12:05:31;;;;;;;12.07;10.73;;;;;;;29.34;34.01;97882.78;8352223;28;20538;-69
2021/07/23 12:09:34;;;;;;;11.37;9.70;;;;;;;29.44;33.37;97872.66;8351774;28;20224;-69
2021/07/23 12:13:37;;;;;;;11.33;10.23;;;;;;;29.32;33.09;97868.81;8351767;28;20239;-69
2021/07/23 12:17:43;;;;;;;11.23;10.13;;;;;;;30.30;32.68;97859.16;8351680;28;20270;-69
2021/07/23 12:21:47;;;;;;;11.60;10.40;;;;;;;29.94;32.08;97862.81;8351561;28;20326;-69
2021/07/23 12:25:50;;;;;;;12.37;10.90;;;;;;;29.96;31.95;97857.31;8351401;28;20222;-69
2021/07/23 12:29:53;;;;;;;12.63;10.03;;;;;;;29.65;34.00;97847.81;8400231;28;20520;-68
2021/07/23 12:34:03;;;;;;;12.07;10.83;;;;;;;30.76;31.92;97839.88;8417366;28;20235;-68
2021/07/23 12:38:08;;;;;;;10.83;9.73;;;;;;;30.95;32.04;97846.34;8417053;28;20272;-68
2021/07/23 12:42:18;;;;;;;14.00;10.50;;;;;;;30.59;32.62;97844.75;8417143;28;20393;-68
2021/07/23 12:46:30;;;;;;;12.60;10.27;;;;;;;30.57;32.08;97835.28;8417002;28;20204;-68
2021/07/23 12:50:33;;;;;;;13.20;9.93;;;;;;;31.44;31.95;97832.88;8417026;28;20203;-68
2021/07/23 12:54:38;;;;;;;11.27;10.07;;;;;;;31.43;30.47;97834.69;8416944;28;20226;-68
2021/07/23 12:58:41;;;;;;;12.50;9.80;;;;;;;30.46;32.82;97831.31;8416522;28;20199;-68
2021/07/23 13:02:43;;;;;;;22.37;10.87;;;;;;;30.67;31.24;97830.38;8398457;28;20193;-68
2021/07/23 13:06:47;;;;;;;11.60;9.73;;;;;;;30.40;31.89;97826.78;8382337;28;20262;-68
2021/07/23 13:10:53;;;;;;;11.93;10.67;;;;;;;30.93;31.20;97818.97;8365301;28;20225;-63
2021/07/23 13:14:56;;;;;;;11.50;10.30;;;;;;;31.34;30.79;97810.00;8382212;28;20384;-65
2021/07/23 13:18:59;;;;;;;13.70;10.83;;;;;;;31.69;31.71;97812.50;8374478;28;20215;-66
2021/07/23 13:23:02;;;;;;;12.90;10.27;;;;;;;31.69;31.09;97806.34;8381385;28;20193;-64
2021/07/23 13:27:06;;;;;;;12.93;10.70;;;;;;;31.61;30.39;97804.69;8381762;28;20515;-65
2021/07/23 13:31:09;;;;;;;11.83;10.40;;;;;;;31.86;30.87;97796.84;8379104;28;20196;-65
2021/07/23 13:35:12;;;;;;;11.20;10.00;;;;;;;31.75;30.11;97792.94;8379257;28;20235;-65
2021/07/23 13:39:19;;;;;;;11.70;10.43;;;;;;;31.75;30.40;97792.13;8356736;28;20485;-66
2021/07/23 13:43:24;;;;;;;17.60;10.27;;;;;;;31.80;30.10;97778.13;8365902;28;20387;-65
2021/07/23 13:47:27;;;;;;;15.83;10.37;;;;;;;31.83;31.26;97775.81;8381478;28;20203;-65
2021/07/23 13:51:29;;;;;;;10.63;9.53;;;;;;;30.87;32.27;97777.00;8370360;28;20192;-64
2021/07/23 13:55:33;;;;;;;17.53;10.57;;;;;;;30.16;32.02;97783.50;8373319;28;20300;-64
2021/07/23 13:59:37;;;;;;;13.80;10.30;;;;;;;29.90;32.53;97770.00;8381441;28;20203;-65
2021/07/23 14:03:40;;;;;;;13.07;10.37;;;;;;;29.40;32.45;97770.84;8379774;28;20208;-65
2021/07/23 14:07:43;;;;;;;13.23;10.70;;;;;;;29.53;32.37;97761.28;8382103;28;20251;-65
2021/07/23 14:11:46;;;;;;;11.87;10.33;;;;;;;29.37;33.47;97770.41;8382203;28;20381;-65
2021/07/23 14:15:50;;;;;;;12.00;10.80;;;;;;;29.04;33.03;97758.41;8381901;28;20238;-65
2021/07/23 14:19:52;;;;;;;13.73;10.63;;;;;;;29.23;32.45;97748.16;8383232;28;20200;-64
2021/07/23 14:23:56;;;;;;;13.10;10.50;;;;;;;29.67;32.04;97755.03;8388315;28;20203;-64
2021/07/23 14:27:58;;;;;;;11.60;10.27;;;;;;;30.02;31.55;97745.25;8388137;28;20218;-65
2021/07/23 14:32:03;;;;;;;10.67;9.57;;;;;;;29.99;32.37;97747.47;8388038;28;20203;-65
2021/07/23 14:36:07;;;;;;;13.30;10.63;;;;;;;29.55;32.26;97743.25;8371893;28;20231;-65
2021/07/23 14:40:11;;;;;;;11.07;9.97;;;;;;;29.30;33.00;97742.84;8370557;28;20205;-64
2021/07/23 14:44:14;;;;;;;12.10;10.80;;;;;;;28.86;32.00;97742.03;8370486;28;20199;-65
2021/07/23 14:48:19;;;;;;;14.50;10.00;;;;;;;29.66;32.13;97740.03;8383291;28;20482;-65
2021/07/23 14:52:21;;;;;;;10.93;9.33;;;;;;;29.30;32.00;97743.72;8370021;28;20541;-65
2021/07/23 14:56:24;;;;;;;11.53;10.33;;;;;;;29.69;31.76;97737.00;8374767;28;20229;-65
2021/07/23 15:00:27;;;;;;;16.87;10.03;;;;;;;29.97;31.59;97725.50;8376213;28;20202;-66
2021/07/23 15:04:31;;;;;;;11.60;10.40;;;;;;;30.17;32.39;97730.91;8383567;28;20213;-66
2021/07/23 15:08:34;;;;;;;14.77;10.17;;;;;;;29.95;31.14;97719.50;8369649;28;20213;-65
2021/07/23 15:12:37;;;;;;;13.27;10.27;;;;;;;29.94;30.84;97718.69;8385783;28;20267;-66
2021/07/23 15:16:40;;;;;;;11.17;10.03;;;;;;;30.14;31.39;97720.63;8371731;28;20235;-66
2021/07/23 15:20:46;;;;;;;12.60;10.30;;;;;;;29.84;30.15;97720.91;8358660;28;20211;-65
2021/07/23 15:24:48;;;;;;;12.50;10.53;;;;;;;29.75;30.15;97714.88;8353499;28;20513;-65
2021/07/23 15:28:51;;;;;;;13.17;10.17;;;;;;;29.72;30.78;97715.25;8353205;28;20203;-65
2021/07/23 15:32:54;;;;;;;13.60;9.90;;;;;;;29.77;31.00;97718.19;8367857;28;20253;-66
2021/07/23 15:36:58;;;;;;;18.90;10.37;;;;;;;29.70;30.50;97708.47;8370109;28;20222;-66
2021/07/23 15:41:01;;;;;;;23.47;10.20;;;;;;;29.59;31.63;97713.34;8368661;28;20195;-65
2021/07/23 15:45:04;;;;;;;17.20;9.80;;;;;;;29.88;31.75;97716.00;8369065;28;20199;-65
2021/07/23 15:49:07;;;;;;;10.27;9.20;;;;;;;29.66;32.19;97712.53;8368182;28;20198;-66
2021/07/23 15:53:11;;;;;;;15.37;10.40;;;;;;;29.61;30.94;97713.16;8368063;28;20199;-66
2021/07/23 15:57:14;;;;;;;10.57;9.43;;;;;;;29.32;31.12;97709.66;8377033;28;20227;-66
2021/07/23 16:01:17;;;;;;;16.53;10.97;;;;;;;29.17;30.81;97714.28;8370549;28;20203;-66
2021/07/23 16:05:20;;;;;;;11.60;10.40;;;;;;;29.35;31.06;97703.94;8379345;28;20429;-66
2021/07/23 16:09:24;;;;;;;12.23;9.97;;;;;;;29.25;31.66;97698.13;8384104;28;20545;-66
2021/07/23 16:13:27;;;;;;;12.80;10.57;;;;;;;28.96;32.69;97696.41;8383476;28;20202;-65
2021/07/23 16:17:30;;;;;;;15.27;10.47;;;;;;;29.03;31.79;97690.13;8379377;28;20221;-66
2021/07/23 16:21:33;;;;;;;10.93;9.77;;;;;;;29.13;32.65;97686.31;8381071;28;20583;-66
2021/07/23 16:25:38;;;;;;;12.63;9.63;;;;;;;29.07;31.44;97690.56;8383488;28;20488;-66
2021/07/23 16:29:41;;;;;;;14.17;10.73;;;;;;;28.96;32.07;97678.59;8383410;28;20204;-66
2021/07/23 16:33:44;;;;;;;11.37;10.03;;;;;;;28.85;31.66;97679.09;8380737;28;20237;-65
2021/07/23 16:37:47;;;;;;;13.30;9.87;;;;;;;28.91;31.68;97667.66;8366597;28;20227;-65
2021/07/23 16:41:52;;;;;;;14.70;9.53;;;;;;;28.97;33.36;97666.09;8366324;28;20307;-66
2021/07/23 16:45:55;;;;;;;11.93;9.90;;;;;;;28.88;33.87;97664.56;8371443;28;20198;-66
2021/07/23 16:49:59;;;;;;;11.10;10.00;;;;;;;29.13;32.92;97665.00;8368317;28;20195;-70
2021/07/23 16:54:02;;;;;;;15.10;10.60;;;;;;;28.85;33.29;97661.28;8366227;28;20201;-68
2021/07/23 16:58:06;;;;;;;10.93;9.83;;;;;;;28.67;34.08;97647.56;8369172;28;20227;-69
2021/07/23 17:02:08;;;;;;;11.23;10.07;;;;;;;28.61;34.10;97648.34;8364399;28;20233;-69
2021/07/23 17:06:12;;;;;;;10.63;9.60;;;;;;;28.54;34.66;97650.13;8382575;28;20221;-71
2021/07/23 17:10:16;;;;;;;12.00;10.13;;;;;;;28.63;33.46;97641.78;8382604;28;20531;-70
2021/07/23 17:14:20;;;;;;;10.53;9.47;;;;;;;28.33;34.61;97640.25;8350384;28;20463;-70
2021/07/23 17:18:24;;;;;;;10.60;9.60;;;;;;;28.50;34.30;97646.97;8381205;28;20264;-70
2021/07/23 17:22:29;;;;;;;12.00;10.30;;;;;;;28.31;35.25;97647.59;8382846;28;20220;-70
2021/07/23 17:26:32;;;;;;;11.20;9.73;;;;;;;28.35;34.95;97638.22;8382988;28;20213;-70
2021/07/23 17:30:37;;;;;;;13.87;10.13;;;;;;;28.08;34.68;97640.59;8381820;28;20498;-70
2021/07/23 17:34:39;;;;;;;11.97;10.07;;;;;;;28.25;35.29;97626.06;8382661;28;20566;-70
2021/07/23 17:38:42;;;;;;;12.80;11.17;;;;;;;28.15;35.58;97624.72;8382805;28;20226;-71
2021/07/23 17:42:47;;;;;;;10.47;9.43;;;;;;;28.13;36.29;97627.56;8382455;28;20220;-70
2021/07/23 17:46:51;;;;;;;18.43;10.57;;;;;;;27.90;36.89;97633.03;8382581;28;20207;-71
2021/07/23 17:50:54;;;;;;;11.93;10.60;;;;;;;27.87;35.98;97622.72;8379815;28;20207;-71
2021/07/23 17:54:57;;;;;;;12.73;10.33;;;;;;;27.68;36.25;97630.28;8373551;28;20368;-71
2021/07/23 17:59:00;;;;;;;15.17;10.50;;;;;;;27.69;36.75;97633.75;8388883;28;20235;-70
2021/07/23 18:03:04;;;;;;;17.10;10.77;;;;;;;27.74;38.32;97647.34;8388541;28;20228;-69
2021/07/23 18:07:07;;;;;;;13.33;9.70;;;;;;;27.69;38.57;97641.75;8388756;28;20208;-70
2021/07/23 18:11:12;;;;;;;16.33;10.73;;;;;;;27.60;39.51;97632.19;8388520;28;20275;-70
2021/07/23 18:15:15;;;;;;;15.87;10.80;;;;;;;27.51;38.97;97642.09;8388734;28;20210;-70
2021/07/23 18:19:19;;;;;;;14.10;11.07;;;;;;;27.48;38.92;97635.31;8388286;28;20235;-70
2021/07/23 18:23:22;;;;;;;21.80;10.73;;;;;;;27.47;39.70;97635.50;8388463;28;20403;-70
2021/07/23 18:27:25;;;;;;;22.00;11.20;;;;;;;27.42;39.22;97640.56;8388233;28;20371;-70
2021/07/23 18:31:27;;;;;;;42.73;11.50;;;;;;;27.33;39.95;97642.47;8388106;28;20200;-73
2021/07/23 18:35:31;;;;;;;29.77;11.77;;;;;;;27.18;39.77;97638.94;8387474;28;20316;-70
2021/07/23 18:39:35;;;;;;;23.83;11.57;;;;;;;27.08;40.20;97633.91;8387471;28;20202;-69
2021/07/23 18:43:37;;;;;;;22.50;11.57;;;;;;;27.06;40.12;97633.25;8386845;28;20201;-69
2021/07/23 18:47:44;;;;;;;19.73;10.97;;;;;;;26.99;40.63;97635.78;8387478;28;20422;-71
2021/07/23 18:51:48;;;;;;;19.10;11.00;;;;;;;26.83;40.69;97634.13;8396264;28;20204;-69